Terminal Aerodrome Forecast
Issued by NWS Cleveland, OH

Home | Current Version | Previous Version | Text Only | Print | Product List | Glossary On
Versions: 1 2 3 4 5 6 7 8 9 10 11 12 13 14 15
136
FTUS41 KCLE 200945 AAA
TAFCAK
TAF AMD
KCAK 200945Z 2010/2106 VRB03KT 1SM BR SCT004
      TEMPO 2010/2013 1/2SM FG BKN004
     FM201300 09003KT 3SM BR SCT250
     FM201500 11005KT P6SM BKN250=

USA.gov is the U.S. government's official web portal to all federal, state and local government web resources and services.